Terminal Aerodrome Forecast
Issued by NWS Albany, NY

Home | Current Version | Previous Version | Text Only | Print | Product List | Glossary On
Versions: 1 2 3 4 5 6 7 8 9 10 11 12 13 14 15 16 17 18 19 20 21 22 23 24
000
FTUS41 KALY 230538
TAFGFL
TAF
KGFL 230538Z 2306/2406 01004KT P6SM SKC
     FM230800 00000KT 6SM BR SKC
      TEMPO 2308/2311 1SM BR BKN002
     FM231200 VRB03KT P6SM SKC
     FM231700 08005KT P6SM FEW050 SCT250
     FM232300 00000KT P6SM FEW250=

USA.gov is the U.S. government's official web portal to all federal, state and local government web resources and services.